createdAt,value
2023-04-18T00:00:12.582Z,20.80
2023-04-18T00:01:09.887Z,19.20
2023-04-18T00:01:44.809Z,19.70
2023-04-18T00:02:18.564Z,20.80
2023-04-18T00:02:54.479Z,20.90
2023-04-18T00:03:30.273Z,21.00
2023-04-18T00:04:05.274Z,20.00
2023-04-18T00:04:38.978Z,19.80
2023-04-18T00:05:13.220Z,21.50
2023-04-18T00:05:48.231Z,20.40
2023-04-18T00:06:22.386Z,21.30
2023-04-18T00:06:56.039Z,20.90
2023-04-18T00:07:29.343Z,20.80
2023-04-18T00:08:03.324Z,20.90
2023-04-18T00:08:36.916Z,21.00
2023-04-18T00:09:10.661Z,20.50
2023-04-18T00:09:44.712Z,21.10
2023-04-18T00:10:18.517Z,20.40
2023-04-18T00:10:51.967Z,20.40
2023-04-18T00:11:27.352Z,20.80
2023-04-18T00:12:05.777Z,20.50
2023-04-18T00:12:40.850Z,20.60
2023-04-18T00:13:14.230Z,20.00
2023-04-18T00:13:47.688Z,21.30
2023-04-18T00:14:20.993Z,21.10
2023-04-18T00:14:55.113Z,21.70
2023-04-18T00:15:29.596Z,20.70
2023-04-18T00:16:04.254Z,21.20
2023-04-18T00:16:39.049Z,20.70
2023-04-18T00:17:13.612Z,19.90
2023-04-18T00:17:48.499Z,20.80
2023-04-18T00:18:22.241Z,21.10
2023-04-18T00:18:57.380Z,20.60
2023-04-18T00:19:30.890Z,20.70
2023-04-18T00:20:07.204Z,20.60
2023-04-18T00:20:40.688Z,21.10
2023-04-18T00:21:13.957Z,20.30
2023-04-18T00:21:47.253Z,19.70
2023-04-18T00:22:23.720Z,20.00
2023-04-18T00:22:57.216Z,19.40
2023-04-18T00:23:30.471Z,20.90
2023-04-18T00:24:03.813Z,21.40
2023-04-18T00:24:37.257Z,18.40
2023-04-18T00:25:11.305Z,18.90
2023-04-18T00:25:44.618Z,20.20
2023-04-18T00:26:17.887Z,20.00
2023-04-18T00:26:51.071Z,19.90
2023-04-18T00:27:24.455Z,21.10
2023-04-18T00:28:01.370Z,21.40
2023-04-18T00:28:35.305Z,20.60
2023-04-18T00:29:08.601Z,20.70
2023-04-18T00:29:42.769Z,21.70
2023-04-18T00:30:16.182Z,21.20
2023-04-18T00:30:49.471Z,19.60
2023-04-18T00:31:22.888Z,20.50
2023-04-18T00:31:57.511Z,21.10
2023-04-18T00:32:30.804Z,21.10
2023-04-18T00:33:05.737Z,21.50
2023-04-18T00:34:38.425Z,20.50
2023-04-18T00:35:11.733Z,21.00
2023-04-18T00:35:45.014Z,22.20
2023-04-18T00:36:21.076Z,23.10
2023-04-18T00:36:57.481Z,23.30
2023-04-18T00:37:39.991Z,22.10
2023-04-18T00:38:17.384Z,21.70
2023-04-18T00:38:50.766Z,21.50
2023-04-18T00:39:24.095Z,22.40
2023-04-18T00:39:58.352Z,22.00
2023-04-18T00:40:31.863Z,23.30
2023-04-18T00:41:05.524Z,22.90
2023-04-18T00:41:38.975Z,21.80
2023-04-18T00:42:12.491Z,22.90
2023-04-18T00:42:46.012Z,24.00
2023-04-18T00:43:23.829Z,24.30
2023-04-18T00:43:57.258Z,22.30
2023-04-18T00:44:31.747Z,23.50
2023-04-18T00:45:05.852Z,24.80
2023-04-18T00:45:41.879Z,24.10
2023-04-18T00:46:17.343Z,24.40
2023-04-18T00:46:51.514Z,22.90
2023-04-18T00:47:26.049Z,24.20
2023-04-18T00:47:59.375Z,25.00
2023-04-18T00:48:32.705Z,23.90
2023-04-18T00:49:07.430Z,25.10
2023-04-18T00:49:40.868Z,24.90
2023-04-18T00:50:15.200Z,24.60
2023-04-18T00:50:49.027Z,24.20
2023-04-18T00:51:22.500Z,25.50
2023-04-18T00:51:57.005Z,25.30
2023-04-18T00:52:32.093Z,25.50
2023-04-18T00:53:06.363Z,25.10
2023-04-18T00:53:42.014Z,25.90
2023-04-18T00:54:18.316Z,24.30
2023-04-18T00:54:51.895Z,22.10
2023-04-18T00:55:25.828Z,26.00
2023-04-18T00:55:59.412Z,24.60
2023-04-18T00:56:36.296Z,25.80
2023-04-18T00:57:10.010Z,25.00
2023-04-18T00:57:44.568Z,25.30
2023-04-18T00:58:18.450Z,26.70
2023-04-18T00:58:52.186Z,25.10
2023-04-18T00:59:25.994Z,24.80
2023-04-18T01:00:08.814Z,25.20
2023-04-18T01:00:42.996Z,25.90
2023-04-18T01:01:19.247Z,25.20
2023-04-18T01:01:53.075Z,26.30
2023-04-18T01:02:28.730Z,24.90
2023-04-18T01:03:03.965Z,23.80
2023-04-18T01:03:37.976Z,25.40
2023-04-18T01:04:14.133Z,26.00
2023-04-18T01:04:48.098Z,24.10
2023-04-18T01:05:23.076Z,25.00
2023-04-18T01:05:57.673Z,26.60
2023-04-18T01:06:32.209Z,25.20
2023-04-18T01:07:06.268Z,26.80
2023-04-18T01:07:42.785Z,26.00
2023-04-18T01:08:16.478Z,27.20
2023-04-18T01:08:49.863Z,25.10
2023-04-18T01:09:25.865Z,26.20
2023-04-18T01:09:59.678Z,25.70
2023-04-18T01:10:33.013Z,24.00
2023-04-18T01:11:06.285Z,26.90
2023-04-18T01:11:39.789Z,25.40
2023-04-18T01:12:13.254Z,27.50
2023-04-18T01:12:46.662Z,26.30
2023-04-18T01:13:21.302Z,25.60
2023-04-18T01:14:08.534Z,25.80
2023-04-18T01:14:43.171Z,26.40
2023-04-18T01:15:16.477Z,26.90
2023-04-18T01:15:51.234Z,27.20
2023-04-18T01:16:24.704Z,26.10
2023-04-18T01:16:59.026Z,26.10
2023-04-18T01:17:34.852Z,25.90
2023-04-18T01:18:09.305Z,26.60
2023-04-18T01:18:43.586Z,25.20
2023-04-18T01:19:21.721Z,24.60
2023-04-18T01:19:57.762Z,27.30
2023-04-18T01:20:35.482Z,24.80
2023-04-18T01:21:09.413Z,24.30
2023-04-18T01:21:44.083Z,27.00
2023-04-18T01:22:20.204Z,26.60
2023-04-18T01:22:53.937Z,27.00
2023-04-18T01:23:27.479Z,25.80
2023-04-18T01:24:08.102Z,26.10
2023-04-18T01:24:42.326Z,26.10
2023-04-18T01:25:16.273Z,26.10
2023-04-18T01:25:49.753Z,27.20
2023-04-18T01:26:24.377Z,26.00
2023-04-18T01:26:58.916Z,24.90
2023-04-18T01:27:32.854Z,25.50
2023-04-18T01:28:07.353Z,26.00
2023-04-18T01:28:42.352Z,25.30
2023-04-18T01:29:16.108Z,22.60
2023-04-18T01:29:49.554Z,21.30
2023-04-18T01:30:22.916Z,25.40
2023-04-18T01:30:58.331Z,23.70
2023-04-18T01:31:36.473Z,25.50
2023-04-18T01:32:09.897Z,25.80
2023-04-18T01:32:45.293Z,26.00
2023-04-18T01:33:18.770Z,26.60
2023-04-18T01:33:53.588Z,25.10
2023-04-18T01:34:27.400Z,25.50
2023-04-18T01:35:00.740Z,25.30
2023-04-18T01:35:34.685Z,25.90
2023-04-18T01:36:08.176Z,19.10
2023-04-18T01:36:41.581Z,24.80
2023-04-18T01:37:17.832Z,23.30
2023-04-18T01:37:51.136Z,25.40
2023-04-18T01:38:24.438Z,24.30
2023-04-18T01:38:58.553Z,23.00
2023-04-18T01:39:31.954Z,26.20
2023-04-18T01:40:05.767Z,26.30
2023-04-18T01:40:39.227Z,25.20
2023-04-18T01:41:12.621Z,25.90
2023-04-18T01:41:46.063Z,23.60
2023-04-18T01:42:19.296Z,23.30
2023-04-18T01:42:52.717Z,25.30
2023-04-18T01:43:26.091Z,24.40
2023-04-18T01:44:00.350Z,25.10
2023-04-18T01:44:34.072Z,25.30
2023-04-18T01:45:08.139Z,24.60
2023-04-18T01:45:41.421Z,23.90
2023-04-18T01:46:16.012Z,24.00
2023-04-18T01:46:49.429Z,24.30
2023-04-18T01:47:22.819Z,24.80
2023-04-18T01:47:56.414Z,25.40
2023-04-18T01:48:30.136Z,24.50
2023-04-18T01:51:18.382Z,22.90
2023-04-18T01:51:52.387Z,22.90
2023-04-18T01:52:28.398Z,23.90
2023-04-18T01:53:02.244Z,24.80
2023-04-18T01:53:36.377Z,24.10
2023-04-18T01:54:10.297Z,24.70
2023-04-18T01:54:44.335Z,25.70
2023-04-18T01:55:19.583Z,24.60
2023-04-18T01:55:53.590Z,25.10
2023-04-18T01:56:27.363Z,22.80
2023-04-18T01:57:01.532Z,25.60
2023-04-18T01:57:38.268Z,22.80
2023-04-18T01:58:12.193Z,23.80
2023-04-18T01:58:46.211Z,23.50
2023-04-18T01:59:20.165Z,21.00
2023-04-18T01:59:53.980Z,24.50
2023-04-18T02:00:27.973Z,24.30
2023-04-18T02:01:02.354Z,24.70
2023-04-18T02:01:37.021Z,24.80
2023-04-18T02:02:11.700Z,22.70
2023-04-18T02:02:46.016Z,24.80
2023-04-18T02:03:20.446Z,23.60
2023-04-18T02:03:57.021Z,23.40
2023-04-18T02:04:31.263Z,23.50
2023-04-18T02:05:05.721Z,23.50
2023-04-18T02:05:39.656Z,23.10
2023-04-18T02:06:15.403Z,22.70
2023-04-18T02:06:50.407Z,22.80
2023-04-18T02:07:24.451Z,23.30
2023-04-18T02:07:58.345Z,24.30
2023-04-18T02:08:36.134Z,23.50
2023-04-18T02:09:13.065Z,22.60
2023-04-18T02:09:49.050Z,24.20
2023-04-18T02:10:23.456Z,24.90
2023-04-18T02:10:57.283Z,23.20
2023-04-18T02:11:31.139Z,22.70
2023-04-18T02:12:08.284Z,23.00
2023-04-18T02:12:42.121Z,23.40
2023-04-18T02:13:17.341Z,23.40
2023-04-18T02:13:51.062Z,23.00
2023-04-18T02:14:24.981Z,22.60
2023-04-18T02:14:59.298Z,23.00
2023-04-18T02:15:34.293Z,23.00
2023-04-18T02:16:13.217Z,24.10
2023-04-18T02:16:46.991Z,22.20
2023-04-18T02:17:24.205Z,23.10
2023-04-18T02:18:01.485Z,22.10
2023-04-18T02:18:35.280Z,23.80
2023-04-18T02:19:09.026Z,23.30
2023-04-18T02:19:43.227Z,22.60
2023-04-18T02:20:17.111Z,21.20
2023-04-18T02:20:52.346Z,23.80
2023-04-18T02:21:30.588Z,23.20
2023-04-18T02:22:04.700Z,22.70
2023-04-18T02:22:39.802Z,23.60
2023-04-18T02:23:13.466Z,22.80
2023-04-18T02:23:47.384Z,22.70
2023-04-18T02:24:21.228Z,23.10
2023-04-18T02:24:55.084Z,22.00
2023-04-18T02:25:29.739Z,20.50
2023-04-18T02:26:06.617Z,22.50
2023-04-18T02:26:40.976Z,21.80
2023-04-18T02:27:14.736Z,23.20
2023-04-18T02:27:48.507Z,23.40
2023-04-18T02:28:22.324Z,22.20
2023-04-18T02:28:56.270Z,23.70
2023-04-18T02:29:30.821Z,23.60
2023-04-18T02:30:04.944Z,22.80
2023-04-18T02:30:40.313Z,22.40
2023-04-18T02:31:15.656Z,20.80
2023-04-18T02:31:49.635Z,22.70
2023-04-18T02:32:23.483Z,22.80
2023-04-18T02:32:59.938Z,22.50
2023-04-18T02:33:33.814Z,22.70
2023-04-18T02:34:09.012Z,21.50
2023-04-18T02:34:42.848Z,22.90
2023-04-18T02:35:16.870Z,21.20
2023-04-18T02:35:50.701Z,22.30
2023-04-18T02:36:26.433Z,22.40
2023-04-18T02:37:00.990Z,21.20
2023-04-18T02:37:35.404Z,20.80
2023-04-18T02:38:09.137Z,22.20
2023-04-18T02:38:42.785Z,21.20
2023-04-18T02:39:16.613Z,21.20
2023-04-18T02:39:51.195Z,22.20
2023-04-18T02:40:24.936Z,18.90
2023-04-18T02:40:58.610Z,21.40
2023-04-18T02:41:35.224Z,21.10
2023-04-18T02:42:09.267Z,21.20
2023-04-18T02:42:43.610Z,22.20
2023-04-18T02:43:20.325Z,21.50
2023-04-18T02:43:55.786Z,22.20
2023-04-18T02:44:29.935Z,21.20
2023-04-18T02:45:04.035Z,20.40
2023-04-18T02:45:38.007Z,22.20
2023-04-18T02:46:12.817Z,22.20
2023-04-18T02:46:47.881Z,21.50
2023-04-18T02:47:22.081Z,21.10
2023-04-18T02:47:56.831Z,20.10
2023-04-18T02:48:30.956Z,21.00
2023-04-18T02:49:05.832Z,21.50
2023-04-18T02:49:39.719Z,21.10
2023-04-18T02:50:13.353Z,20.30
2023-04-18T02:50:47.105Z,20.60
2023-04-18T02:51:20.834Z,19.40
2023-04-18T02:51:56.241Z,21.30
2023-04-18T02:52:31.307Z,20.60
2023-04-18T02:53:05.235Z,17.90
2023-04-18T02:53:49.025Z,20.20
2023-04-18T02:54:23.712Z,20.20
2023-04-18T02:55:11.423Z,20.00
2023-04-18T02:55:47.235Z,19.30
2023-04-18T02:56:22.456Z,20.70
2023-04-18T02:57:14.924Z,20.60
2023-04-18T02:57:54.537Z,19.90
2023-04-18T02:59:09.019Z,18.50
2023-04-18T03:01:27.305Z,18.80
2023-04-18T03:02:07.203Z,18.90
2023-04-18T03:02:42.652Z,20.70
2023-04-18T03:03:32.739Z,19.90
2023-04-18T03:04:18.977Z,20.20
2023-04-18T03:05:02.237Z,19.20
2023-04-18T03:05:36.619Z,18.80
2023-04-18T03:06:11.520Z,20.80
2023-04-18T03:06:46.545Z,21.20
2023-04-18T03:07:21.566Z,17.70
2023-04-18T03:07:56.117Z,20.20
2023-04-18T03:08:30.136Z,21.10
2023-04-18T03:09:05.808Z,20.10
2023-04-18T03:09:41.155Z,20.40
2023-04-18T03:10:23.344Z,21.00
2023-04-18T03:10:57.543Z,21.50
2023-04-18T03:11:31.910Z,21.80
2023-04-18T03:12:08.839Z,21.40
2023-04-18T03:12:42.953Z,22.00
2023-04-18T03:13:17.771Z,19.60
2023-04-18T03:13:52.140Z,22.30
2023-04-18T03:14:26.705Z,21.50
2023-04-18T03:15:02.439Z,20.50
2023-04-18T03:15:36.680Z,21.90
2023-04-18T03:16:10.437Z,21.10
2023-04-18T03:16:44.584Z,19.10
2023-04-18T03:17:20.067Z,21.30
2023-04-18T03:17:55.813Z,22.20
2023-04-18T03:18:29.863Z,21.30
2023-04-18T03:19:05.959Z,21.70
2023-04-18T03:19:40.627Z,22.10
2023-04-18T03:20:16.721Z,22.70
2023-04-18T03:20:56.238Z,22.50
2023-04-18T03:21:30.149Z,20.20
2023-04-18T03:22:04.001Z,23.10
2023-04-18T03:22:37.903Z,21.50
2023-04-18T03:23:11.831Z,23.20
2023-04-18T03:23:45.965Z,22.60
2023-04-18T03:24:19.808Z,22.30
2023-04-18T03:24:55.530Z,21.50
2023-04-18T03:25:35.678Z,22.40
2023-04-18T03:26:09.961Z,23.00
2023-04-18T03:26:44.518Z,23.80
2023-04-18T03:27:18.639Z,23.50
2023-04-18T03:27:52.649Z,23.70
2023-04-18T03:28:28.216Z,21.70
2023-04-18T03:29:03.386Z,19.00
2023-04-18T03:29:37.446Z,22.40
2023-04-18T03:30:12.800Z,22.00
2023-04-18T03:30:47.143Z,21.60
2023-04-18T03:31:21.259Z,22.00
2023-04-18T03:31:55.103Z,19.80
2023-04-18T03:32:29.129Z,23.30
2023-04-18T03:33:03.070Z,21.50
2023-04-18T03:33:39.494Z,22.60
2023-04-18T03:34:16.028Z,20.30
2023-04-18T03:34:51.766Z,21.40
2023-04-18T03:35:26.423Z,20.90
2023-04-18T03:36:00.270Z,22.10
2023-04-18T03:36:34.361Z,21.00
2023-04-18T03:37:08.218Z,18.30
2023-04-18T03:37:46.178Z,21.90
2023-04-18T03:38:24.956Z,22.30
2023-04-18T03:38:58.898Z,21.80
2023-04-18T03:39:32.730Z,21.80
2023-04-18T03:40:07.397Z,19.50
2023-04-18T03:40:44.827Z,20.00
2023-04-18T03:41:25.230Z,20.60
2023-04-18T03:41:59.185Z,21.00
2023-04-18T03:42:33.186Z,22.30
2023-04-18T03:43:07.021Z,22.00
2023-04-18T03:43:40.669Z,22.70
2023-04-18T03:44:14.740Z,21.30
2023-04-18T03:44:49.004Z,21.60
2023-04-18T03:45:22.839Z,20.60
2023-04-18T03:45:56.824Z,21.50
2023-04-18T03:46:31.469Z,21.00
2023-04-18T03:47:08.402Z,20.40
2023-04-18T03:47:43.085Z,21.00
2023-04-18T03:48:16.965Z,21.30
2023-04-18T03:48:50.995Z,21.10
2023-04-18T03:49:24.864Z,21.60
2023-04-18T03:49:58.779Z,21.90
2023-04-18T03:50:33.862Z,21.10
2023-04-18T03:51:08.447Z,20.80
2023-04-18T03:51:50.545Z,18.40
2023-04-18T03:52:24.923Z,20.10
2023-04-18T03:52:58.686Z,20.90
2023-04-18T03:53:32.708Z,20.70
2023-04-18T03:54:07.517Z,19.90
2023-04-18T03:54:41.464Z,21.20
2023-04-18T03:55:16.279Z,20.60
2023-04-18T03:55:51.022Z,19.40
2023-04-18T03:56:26.223Z,19.80
2023-04-18T03:57:05.181Z,20.20
2023-04-18T03:57:43.517Z,20.00
2023-04-18T03:58:24.014Z,20.00
2023-04-18T03:58:59.118Z,16.10
2023-04-18T03:59:33.051Z,19.00
2023-04-18T04:00:11.214Z,20.10
2023-04-18T04:00:57.016Z,16.20
2023-04-18T04:01:30.974Z,19.20
2023-04-18T04:02:05.112Z,17.60
2023-04-18T04:02:39.733Z,18.60
2023-04-18T04:03:13.702Z,18.50
2023-04-18T04:03:47.808Z,18.30
2023-04-18T04:04:22.231Z,19.20
2023-04-18T04:04:57.604Z,17.80
2023-04-18T04:05:31.618Z,19.00
2023-04-18T04:06:07.175Z,18.20
2023-04-18T04:06:41.451Z,19.10
2023-04-18T04:07:15.191Z,18.90
2023-04-18T04:07:49.122Z,18.00
2023-04-18T04:08:22.949Z,19.30
2023-04-18T04:08:56.815Z,20.00
2023-04-18T04:09:32.434Z,19.40
2023-04-18T04:10:07.301Z,19.30
2023-04-18T04:10:41.125Z,18.90
2023-04-18T04:11:14.883Z,18.50
2023-04-18T04:11:49.316Z,19.00
2023-04-18T04:12:23.401Z,18.20
2023-04-18T04:12:57.180Z,18.90
2023-04-18T04:13:32.120Z,18.60
2023-04-18T04:14:06.328Z,19.40
2023-04-18T04:14:44.741Z,18.50
2023-04-18T04:15:18.705Z,19.00
2023-04-18T04:16:02.904Z,17.30
2023-04-18T04:16:37.149Z,19.40
2023-04-18T04:17:11.426Z,18.30
2023-04-18T04:17:46.480Z,14.90
2023-04-18T04:18:20.950Z,16.70
2023-04-18T04:18:54.777Z,17.50
2023-04-18T04:19:30.661Z,17.60
2023-04-18T04:20:14.576Z,17.50
2023-04-18T04:20:51.565Z,16.70
2023-04-18T04:21:39.466Z,16.90
2023-04-18T04:22:17.437Z,16.70
2023-04-18T04:22:52.894Z,16.90
2023-04-18T04:23:27.453Z,16.10
2023-04-18T04:24:02.018Z,16.90
2023-04-18T04:24:40.020Z,17.00
2023-04-18T04:25:14.111Z,18.10
2023-04-18T04:25:54.160Z,17.50
2023-04-18T04:26:43.744Z,15.60
2023-04-18T04:27:23.517Z,15.70
2023-04-18T04:27:57.713Z,15.90
2023-04-18T04:28:32.037Z,16.50
2023-04-18T04:29:10.445Z,16.00
2023-04-18T04:29:45.625Z,16.60
2023-04-18T04:30:20.092Z,16.40
2023-04-18T04:30:56.293Z,16.50
2023-04-18T04:31:30.800Z,15.40
2023-04-18T04:32:06.054Z,15.60
2023-04-18T04:32:45.030Z,15.40
2023-04-18T04:33:25.601Z,14.90
2023-04-18T04:34:00.213Z,14.50
2023-04-18T04:34:36.066Z,15.00
2023-04-18T04:35:17.725Z,15.00
2023-04-18T04:35:55.159Z,15.70
2023-04-18T04:36:29.549Z,14.60
2023-04-18T04:37:04.117Z,13.90
2023-04-18T04:37:44.545Z,14.00
2023-04-18T04:38:40.925Z,12.60
2023-04-18T04:39:18.035Z,12.60
2023-04-18T04:40:09.684Z,13.90
2023-04-18T04:40:57.733Z,13.20
2023-04-18T04:41:38.067Z,11.70
2023-04-18T04:42:12.612Z,11.60
2023-04-18T04:42:57.056Z,13.20
2023-04-18T04:43:35.494Z,13.40
2023-04-18T04:44:09.966Z,14.30
2023-04-18T04:44:44.234Z,13.50
2023-04-18T04:45:18.450Z,13.60
2023-04-18T04:45:53.980Z,14.20
2023-04-18T04:46:31.303Z,13.60
2023-04-18T04:47:05.469Z,14.10
2023-04-18T04:47:41.508Z,13.90
2023-04-18T04:48:16.047Z,14.40
2023-04-18T04:48:54.780Z,14.10
2023-04-18T04:49:28.762Z,14.10
2023-04-18T04:50:04.781Z,14.20
2023-04-18T04:50:42.654Z,12.60
2023-04-18T04:51:18.542Z,13.80
2023-04-18T04:51:52.739Z,13.40
2023-04-18T04:52:27.030Z,14.40
2023-04-18T04:53:01.330Z,14.30
2023-04-18T04:53:36.272Z,13.30
2023-04-18T04:54:10.807Z,13.30
2023-04-18T04:54:46.263Z,14.00
2023-04-18T04:55:21.016Z,13.20
2023-04-18T04:55:56.459Z,13.20
2023-04-18T04:56:30.663Z,13.50
2023-04-18T04:57:04.757Z,13.80
2023-04-18T04:57:38.874Z,13.80
2023-04-18T04:58:22.296Z,13.70
2023-04-18T04:59:22.628Z,12.70
2023-04-18T04:59:57.737Z,12.00
2023-04-18T05:00:31.940Z,13.10
2023-04-18T05:01:10.942Z,13.20
2023-04-18T05:01:45.681Z,13.20
2023-04-18T05:02:23.762Z,13.40
2023-04-18T05:02:58.249Z,13.30
2023-04-18T05:03:33.173Z,14.00
2023-04-18T05:04:07.360Z,12.70
2023-04-18T05:04:41.583Z,13.40
2023-04-18T05:05:15.973Z,12.60
2023-04-18T05:05:49.786Z,13.70
2023-04-18T05:06:24.809Z,13.20
2023-04-18T05:06:58.722Z,13.50
2023-04-18T05:07:32.470Z,14.40
2023-04-18T05:08:06.659Z,13.50
2023-04-18T05:08:40.877Z,13.40
2023-04-18T05:09:14.533Z,14.30
2023-04-18T05:09:56.731Z,12.10
2023-04-18T05:11:01.660Z,12.40
2023-04-18T05:11:38.477Z,13.20
2023-04-18T05:12:12.583Z,13.50
2023-04-18T05:12:50.588Z,13.60
2023-04-18T05:13:24.424Z,14.00
2023-04-18T05:13:58.417Z,13.90
2023-04-18T05:14:32.453Z,14.00
2023-04-18T05:15:07.189Z,13.80
2023-04-18T05:15:41.565Z,14.20
2023-04-18T05:16:15.362Z,13.50
2023-04-18T05:16:49.393Z,13.50
2023-04-18T05:17:23.453Z,14.00
2023-04-18T05:17:58.707Z,13.20
2023-04-18T05:18:34.846Z,14.60
2023-04-18T05:19:08.770Z,14.00
2023-04-18T05:19:44.644Z,14.00
2023-04-18T05:20:18.606Z,13.80
2023-04-18T05:20:52.597Z,14.50
2023-04-18T05:21:29.159Z,14.40
2023-04-18T05:22:03.432Z,14.30
2023-04-18T05:22:37.453Z,13.40
2023-04-18T05:23:11.637Z,14.60
2023-04-18T05:24:14.783Z,13.60
2023-04-18T05:24:54.701Z,12.80
2023-04-18T05:25:30.157Z,14.70
2023-04-18T05:26:07.330Z,13.70
2023-04-18T05:26:44.762Z,14.10
2023-04-18T05:27:22.112Z,13.70
2023-04-18T05:27:57.906Z,13.60
2023-04-18T05:28:34.564Z,14.30
2023-04-18T05:29:08.584Z,14.40
2023-04-18T05:29:42.584Z,13.20
2023-04-18T05:30:40.791Z,13.40
2023-04-18T05:31:14.713Z,14.40
2023-04-18T05:31:51.603Z,13.60
2023-04-18T05:32:25.537Z,14.20
2023-04-18T05:32:59.355Z,14.00
2023-04-18T05:33:33.503Z,13.50
2023-04-18T05:34:07.485Z,13.60
2023-04-18T05:34:41.390Z,14.30
2023-04-18T05:35:15.143Z,13.90
2023-04-18T05:35:48.803Z,14.00
2023-04-18T05:36:23.204Z,14.50
2023-04-18T05:37:03.132Z,13.70
2023-04-18T05:37:36.980Z,14.00
2023-04-18T05:38:11.008Z,14.10
2023-04-18T05:38:44.926Z,13.60
2023-04-18T05:39:18.865Z,14.60
2023-04-18T05:39:52.797Z,13.20
2023-04-18T05:40:30.427Z,13.10
2023-04-18T05:41:04.624Z,13.40
2023-04-18T05:41:38.536Z,13.70
2023-04-18T05:42:12.190Z,13.00
2023-04-18T05:42:46.216Z,13.20
2023-04-18T05:43:20.508Z,13.10
2023-04-18T05:44:04.861Z,13.60
2023-04-18T05:44:40.001Z,13.20
2023-04-18T05:45:13.811Z,13.30
2023-04-18T05:45:48.154Z,13.40
2023-04-18T05:46:22.098Z,13.60
2023-04-18T05:46:56.233Z,13.50
2023-04-18T05:47:30.806Z,13.50
2023-04-18T05:48:05.044Z,13.40
2023-04-18T05:48:38.909Z,12.40
2023-04-18T05:49:13.483Z,13.30
2023-04-18T05:49:47.152Z,12.50
2023-04-18T05:50:23.679Z,13.10
2023-04-18T05:50:58.322Z,12.90
2023-04-18T05:51:34.862Z,13.10
2023-04-18T05:52:08.616Z,12.90
2023-04-18T05:52:42.650Z,12.30
2023-04-18T05:53:19.203Z,13.90
2023-04-18T05:53:55.901Z,12.90
2023-04-18T05:54:29.812Z,12.90
2023-04-18T05:55:03.839Z,12.70
2023-04-18T05:55:39.770Z,13.50
2023-04-18T05:56:13.785Z,12.40
2023-04-18T05:56:50.539Z,12.90
2023-04-18T05:57:24.641Z,12.40
2023-04-18T05:57:58.809Z,12.20
2023-04-18T05:58:35.263Z,12.50
2023-04-18T05:59:09.480Z,12.50
2023-04-18T05:59:43.860Z,12.60
2023-04-18T06:00:21.294Z,12.00
2023-04-18T06:00:56.305Z,12.30
2023-04-18T06:01:30.124Z,12.50
2023-04-18T06:02:13.770Z,12.70
2023-04-18T06:02:48.138Z,12.50
2023-04-18T06:03:24.641Z,13.30
2023-04-18T06:03:58.901Z,12.20
2023-04-18T06:04:33.368Z,12.60
2023-04-18T06:05:08.247Z,12.80
2023-04-18T06:05:45.244Z,11.40
2023-04-18T06:06:19.469Z,12.20
2023-04-18T06:06:53.134Z,12.40
2023-04-18T06:07:27.064Z,12.20
2023-04-18T06:08:01.198Z,12.50
2023-04-18T06:08:35.451Z,12.00
2023-04-18T06:09:09.289Z,11.20
2023-04-18T06:09:43.148Z,12.10
2023-04-18T06:10:17.635Z,11.80
2023-04-18T06:10:51.531Z,11.10
2023-04-18T06:11:25.208Z,11.10
2023-04-18T06:11:59.494Z,10.50
2023-04-18T06:12:33.245Z,10.90
2023-04-18T06:13:07.172Z,11.80
2023-04-18T06:13:41.260Z,9.80
2023-04-18T06:14:15.222Z,11.40
2023-04-18T06:14:50.244Z,11.20
2023-04-18T06:15:24.244Z,10.90
2023-04-18T06:15:58.461Z,11.10
2023-04-18T06:16:32.525Z,10.80
2023-04-18T06:17:10.424Z,11.20
2023-04-18T06:17:45.041Z,10.40
2023-04-18T06:18:19.006Z,10.40
2023-04-18T06:18:55.728Z,10.80
2023-04-18T06:19:29.557Z,11.10
2023-04-18T06:20:06.144Z,10.70
2023-04-18T06:20:40.213Z,10.60
2023-04-18T06:21:14.769Z,11.60
2023-04-18T06:21:49.516Z,10.80
2023-04-18T06:22:23.361Z,11.30
2023-04-18T06:22:57.197Z,10.70
2023-04-18T06:23:31.169Z,10.50
2023-04-18T06:24:04.951Z,10.50
2023-04-18T06:24:38.798Z,10.40
2023-04-18T06:25:12.546Z,10.70
2023-04-18T06:25:46.743Z,10.50
2023-04-18T06:26:20.703Z,10.70
2023-04-18T06:26:56.255Z,10.70
2023-04-18T06:27:31.886Z,11.30
2023-04-18T06:28:06.096Z,9.50
2023-04-18T06:28:40.077Z,9.60
2023-04-18T06:29:13.823Z,10.50
2023-04-18T06:29:47.736Z,10.20
2023-04-18T06:30:22.430Z,10.30
2023-04-18T06:30:59.044Z,11.10
2023-04-18T06:31:33.103Z,10.50
2023-04-18T06:32:07.268Z,10.70
2023-04-18T06:32:41.193Z,10.60
2023-04-18T06:33:15.037Z,10.80
2023-04-18T06:33:48.960Z,9.10
2023-04-18T06:34:22.984Z,9.70
2023-04-18T06:34:57.268Z,10.70
2023-04-18T06:35:32.099Z,10.00
2023-04-18T06:36:07.470Z,9.40
2023-04-18T06:36:41.507Z,9.70
2023-04-18T06:37:18.295Z,10.30
2023-04-18T06:37:52.680Z,10.50
2023-04-18T06:38:38.122Z,10.80
2023-04-18T06:39:12.161Z,10.70
2023-04-18T06:39:46.350Z,10.00
2023-04-18T06:40:20.271Z,10.40
2023-04-18T06:40:54.135Z,9.50
2023-04-18T06:41:27.962Z,10.30
2023-04-18T06:42:02.965Z,10.00
2023-04-18T06:42:39.339Z,9.70
2023-04-18T06:43:13.156Z,9.90
2023-04-18T06:44:02.028Z,8.30
2023-04-18T06:44:37.006Z,8.90
2023-04-18T06:45:12.396Z,9.50
2023-04-18T06:45:47.583Z,9.30
2023-04-18T06:46:21.590Z,10.10
2023-04-18T06:46:56.083Z,9.80
2023-04-18T06:47:30.687Z,10.80
2023-04-18T06:48:07.416Z,9.60
2023-04-18T06:48:41.497Z,8.40
2023-04-18T06:49:15.390Z,9.70
2023-04-18T06:49:49.149Z,9.60
2023-04-18T06:50:23.094Z,9.50
2023-04-18T06:50:57.201Z,9.90
2023-04-18T06:51:32.027Z,9.70
2023-04-18T06:52:08.489Z,10.00
2023-04-18T06:52:44.835Z,10.80
2023-04-18T06:53:18.670Z,10.10
2023-04-18T06:53:55.420Z,10.50
2023-04-18T06:54:29.533Z,9.50
2023-04-18T06:55:06.761Z,9.30
2023-04-18T06:55:41.409Z,9.10
2023-04-18T06:56:15.254Z,10.30
2023-04-18T06:56:49.081Z,10.70
2023-04-18T06:57:23.021Z,10.20
2023-04-18T06:57:56.789Z,10.30
2023-04-18T06:58:30.798Z,10.20
2023-04-18T06:59:04.529Z,10.30
2023-04-18T06:59:38.284Z,10.50
2023-04-18T07:00:12.564Z,10.10
2023-04-18T07:00:49.252Z,10.00
2023-04-18T07:01:23.081Z,10.00
2023-04-18T07:01:57.812Z,9.40
2023-04-18T07:02:32.058Z,9.50
2023-04-18T07:03:11.374Z,10.50
2023-04-18T07:03:45.967Z,10.50
2023-04-18T07:04:20.458Z,10.10
2023-04-18T07:04:54.552Z,10.10
2023-04-18T07:05:28.502Z,10.70
2023-04-18T07:06:03.504Z,10.80
2023-04-18T07:06:37.950Z,10.40
2023-04-18T07:07:11.910Z,10.70
2023-04-18T07:07:45.932Z,11.40
2023-04-18T07:08:20.383Z,11.00
2023-04-18T07:08:56.282Z,11.30
2023-04-18T07:09:30.312Z,10.10
2023-04-18T07:10:05.058Z,10.90
2023-04-18T07:10:38.958Z,9.70
2023-04-18T07:11:15.686Z,10.60
2023-04-18T07:11:51.504Z,11.20
2023-04-18T07:12:28.317Z,11.20
2023-04-18T07:13:02.158Z,9.90
2023-04-18T07:13:36.097Z,10.30
2023-04-18T07:14:12.897Z,10.50
2023-04-18T07:14:47.029Z,9.30
2023-04-18T07:15:21.038Z,10.30
2023-04-18T07:15:55.136Z,9.90
2023-04-18T07:16:28.938Z,9.60
2023-04-18T07:17:02.768Z,10.30
2023-04-18T07:17:39.199Z,10.10
2023-04-18T07:18:16.132Z,9.70
2023-04-18T07:18:54.515Z,9.80
2023-04-18T07:19:28.242Z,9.90
2023-04-18T07:20:04.343Z,10.60
2023-04-18T07:20:41.451Z,9.80
2023-04-18T07:21:15.130Z,10.00
2023-04-18T07:21:48.917Z,9.20
2023-04-18T07:22:22.837Z,9.80
2023-04-18T07:22:56.699Z,9.50
2023-04-18T07:23:30.360Z,9.90
2023-04-18T07:24:04.079Z,10.10
2023-04-18T07:24:39.643Z,9.70
2023-04-18T07:25:13.486Z,9.80
2023-04-18T07:25:47.511Z,8.80
2023-04-18T07:26:22.360Z,9.80
2023-04-18T07:26:57.188Z,9.40
2023-04-18T07:27:31.370Z,10.00
2023-04-18T07:28:05.287Z,9.90
2023-04-18T07:28:42.189Z,9.50
2023-04-18T07:29:16.150Z,9.20
2023-04-18T07:29:49.877Z,9.40
2023-04-18T07:30:23.710Z,9.90
2023-04-18T07:30:57.672Z,9.60
2023-04-18T07:31:31.756Z,9.70
2023-04-18T07:32:08.110Z,9.50
2023-04-18T07:32:42.431Z,9.80
2023-04-18T07:33:16.625Z,9.80
2023-04-18T07:33:50.537Z,9.60
2023-04-18T07:34:25.703Z,9.30
2023-04-18T07:34:59.584Z,9.20
2023-04-18T07:35:34.300Z,10.10
2023-04-18T07:36:08.227Z,9.60
2023-04-18T07:36:41.879Z,10.20
2023-04-18T07:37:17.885Z,9.60
2023-04-18T07:37:53.894Z,9.20
2023-04-18T07:38:28.187Z,9.70
2023-04-18T07:39:02.289Z,9.40
2023-04-18T07:39:36.612Z,9.40
2023-04-18T07:40:10.962Z,9.30
2023-04-18T07:40:47.450Z,8.80
2023-04-18T07:41:21.435Z,9.50